Time;durP1;ratioP1;P1;durP2;ratioP2;P2;SDS_P1;SDS_P2;PMS_P1;PMS_P2;Temp;Humidity;BMP_temperature;BMP_pressure;BME280_temperature;BME280_humidity;BME280_pressure;Samples;Min_cycle;Max_cycle;Signal;HPM_P1;HPM_P2
2024/04/10 00:00:16;;;;;;;17.38;2.53;;;;;;;9.03;87.53;101742.34;5265484;27;20006;-74
2024/04/10 00:02:42;;;;;;;12.07;3.10;;;;;;;9.06;87.81;101751.59;5259606;27;20018;-74
2024/04/10 00:05:09;;;;;;;19.05;2.08;;;;;;;8.93;88.04;101757.78;5265598;27;20006;-73
2024/04/10 00:07:35;;;;;;;20.35;2.40;;;;;;;8.96;88.01;101752.34;5265157;27;21572;-74
2024/04/10 00:10:02;;;;;;;18.73;2.45;;;;;;;8.94;87.70;101748.25;5256567;27;20446;-74
2024/04/10 00:12:29;;;;;;;20.20;3.45;;;;;;;8.97;87.19;101758.34;5262680;27;20030;-74
2024/04/10 00:14:55;;;;;;;20.10;3.17;;;;;;;8.93;87.79;101756.97;5249104;27;20755;-74
2024/04/10 00:17:21;;;;;;;16.80;2.22;;;;;;;8.85;88.26;101767.88;5238095;27;20010;-74
2024/04/10 00:19:53;;;;;;;15.07;2.05;;;;;;;8.71;89.35;101758.63;5265216;27;20021;-74
2024/04/10 00:22:19;;;;;;;22.17;2.83;;;;;;;8.75;89.02;101770.38;5265501;26;20022;-74
2024/04/10 00:24:45;;;;;;;23.33;2.67;;;;;;;8.68;89.54;101771.81;5263859;27;20436;-74
2024/04/10 00:27:11;;;;;;;14.65;2.58;;;;;;;8.74;88.91;101775.69;5254693;27;20014;-73
2024/04/10 00:29:37;;;;;;;21.83;2.33;;;;;;;8.64;89.21;101783.31;5261669;27;20495;-73
2024/04/10 00:32:04;;;;;;;18.00;2.50;;;;;;;8.64;89.63;101778.16;5253322;27;20017;-73
2024/04/10 00:34:30;;;;;;;24.80;2.40;;;;;;;8.58;90.28;101781.22;5267962;27;20017;-74
2024/04/10 00:36:56;;;;;;;20.02;2.42;;;;;;;8.54;90.37;101785.00;5253979;27;20421;-74
2024/04/10 00:39:23;;;;;;;14.63;1.98;;;;;;;8.52;90.18;101792.84;5260023;27;20026;-74
2024/04/10 00:41:49;;;;;;;17.25;2.30;;;;;;;8.36;91.37;101798.38;5261886;27;20020;-73
2024/04/10 00:44:15;;;;;;;17.98;2.65;;;;;;;8.38;90.73;101796.47;5266583;27;20007;-75
2024/04/10 00:46:41;;;;;;;16.17;2.10;;;;;;;8.38;90.81;101812.00;5263633;27;20013;-74
2024/04/10 00:49:07;;;;;;;21.73;2.95;;;;;;;8.39;90.67;101805.84;5264072;27;20050;-74
2024/04/10 00:51:33;;;;;;;22.83;2.97;;;;;;;8.30;91.35;101808.31;5266983;27;20489;-73
2024/04/10 00:54:02;;;;;;;15.75;3.35;;;;;;;8.36;91.26;101816.44;5261931;27;20090;-74
2024/04/10 00:56:28;;;;;;;20.95;3.00;;;;;;;8.35;91.31;101813.97;5269777;27;20675;-74
2024/04/10 00:58:58;;;;;;;20.00;2.65;;;;;;;8.32;91.50;101825.34;5265648;27;20038;-74
2024/04/10 01:01:24;;;;;;;23.80;4.15;;;;;;;8.28;91.29;101818.78;5262553;27;20028;-74
2024/04/10 01:03:50;;;;;;;19.80;3.00;;;;;;;8.27;91.94;101818.88;5253738;27;20014;-74
2024/04/10 01:06:16;;;;;;;27.58;3.60;;;;;;;8.22;92.45;101832.16;5253324;27;20034;-74
2024/04/10 01:08:42;;;;;;;18.23;2.42;;;;;;;8.28;92.40;101830.88;5264175;27;20396;-74
2024/04/10 01:11:10;;;;;;;17.23;2.75;;;;;;;8.20;92.66;101831.47;5260369;27;20011;-74
2024/04/10 01:13:37;;;;;;;17.10;3.38;;;;;;;8.06;93.23;101836.81;5259471;27;20021;-73
2024/04/10 01:16:03;;;;;;;17.10;2.25;;;;;;;8.06;93.13;101837.66;5255906;27;19999;-74
2024/04/10 01:18:29;;;;;;;20.08;2.13;;;;;;;8.01;93.59;101841.53;5268788;27;20022;-74
2024/04/10 01:20:55;;;;;;;19.30;2.10;;;;;;;7.98;93.98;101845.97;5265212;27;20466;-74
2024/04/10 01:23:22;;;;;;;16.95;2.22;;;;;;;7.95;94.24;101843.63;5264725;26;20021;-74
2024/04/10 01:25:48;;;;;;;19.13;2.35;;;;;;;7.94;94.23;101841.97;5268724;27;20061;-74
2024/04/10 01:28:14;;;;;;;17.63;1.85;;;;;;;7.93;94.41;101850.66;5263068;27;20057;-74
2024/04/10 01:30:40;;;;;;;17.55;2.05;;;;;;;7.89;94.68;101856.16;5263318;27;20267;-74
2024/04/10 01:33:06;;;;;;;17.20;2.35;;;;;;;8.01;94.57;101855.25;5257673;26;20002;-74
2024/04/10 01:35:33;;;;;;;15.48;2.45;;;;;;;7.84;94.60;101859.09;5260598;27;20026;-74
2024/04/10 01:37:59;;;;;;;17.73;2.17;;;;;;;7.80;95.01;101855.09;5258504;27;20128;-74
2024/04/10 01:40:25;;;;;;;15.85;4.13;;;;;;;7.80;95.24;101870.56;5265158;27;20505;-74
2024/04/10 01:42:51;;;;;;;21.90;2.28;;;;;;;7.89;95.40;101867.31;5260061;27;20010;-73
2024/04/10 01:45:17;;;;;;;15.30;2.42;;;;;;;7.75;95.37;101872.66;5263691;27;20480;-74
2024/04/10 01:47:43;;;;;;;21.45;2.63;;;;;;;7.79;96.29;101874.09;5261882;27;20058;-74
2024/04/10 01:50:09;;;;;;;17.95;2.88;;;;;;;7.73;96.19;101877.13;5261531;27;20010;-73
2024/04/10 01:52:35;;;;;;;16.55;2.30;;;;;;;7.65;96.54;101887.16;5264593;27;20006;-74
2024/04/10 01:55:04;;;;;;;18.30;2.50;;;;;;;7.60;97.06;101888.31;5264430;27;20050;-73
2024/04/10 01:57:30;;;;;;;18.67;3.25;;;;;;;7.68;96.77;101895.50;5261979;27;20575;-74
2024/04/10 01:59:56;;;;;;;17.70;2.60;;;;;;;7.56;97.41;101897.22;5271507;27;20025;-74
2024/04/10 02:02:22;;;;;;;19.40;2.95;;;;;;;7.64;97.43;101903.59;5263507;27;20017;-73
2024/04/10 02:04:48;;;;;;;20.75;2.50;;;;;;;7.56;97.21;101899.78;5261538;27;20529;-74
2024/04/10 02:07:14;;;;;;;16.88;2.67;;;;;;;7.48;97.80;101902.09;5258038;27;20015;-74
2024/04/10 02:09:40;;;;;;;23.05;2.45;;;;;;;7.44;97.98;101908.44;5262398;27;20026;-74
2024/04/10 02:12:06;;;;;;;19.63;3.47;;;;;;;7.43;98.38;101913.69;5266212;27;20007;-73
2024/04/10 02:14:32;;;;;;;16.63;2.33;;;;;;;7.37;99.00;101912.38;5264728;27;20502;-74
2024/04/10 02:16:58;;;;;;;22.30;2.53;;;;;;;7.42;98.56;101915.44;5258271;27;20014;-74
2024/04/10 02:19:24;;;;;;;17.73;2.53;;;;;;;7.40;98.91;101912.13;5256472;27;20105;-74
2024/04/10 02:21:52;;;;;;;16.33;2.70;;;;;;;7.31;99.66;101915.34;5255514;27;20732;-74
2024/04/10 02:24:19;;;;;;;13.10;1.75;;;;;;;7.44;99.37;101923.91;5267138;27;20474;-73
2024/04/10 02:26:45;;;;;;;19.45;2.45;;;;;;;7.33;99.52;101922.06;5267531;27;20730;-74
2024/04/10 02:29:11;;;;;;;29.42;2.65;;;;;;;7.26;99.92;101915.69;5296640;26;20481;-74
2024/04/10 02:31:37;;;;;;;23.30;3.15;;;;;;;7.31;100.00;101926.53;5266727;27;20041;-74
2024/04/10 02:34:03;;;;;;;29.38;3.03;;;;;;;7.32;99.65;101932.50;5262809;27;19999;-74
2024/04/10 02:36:29;;;;;;;21.13;2.40;;;;;;;7.25;100.00;101946.75;5264392;27;20010;-74
2024/04/10 02:38:55;;;;;;;24.52;3.80;;;;;;;7.26;100.00;101949.22;5264913;27;20006;-73
2024/04/10 02:41:21;;;;;;;15.27;2.15;;;;;;;7.18;100.00;101943.78;5267247;27;20025;-73
2024/04/10 02:43:47;;;;;;;18.48;1.92;;;;;;;7.20;100.00;101954.81;5268563;27;20002;-74
2024/04/10 02:46:17;;;;;;;14.70;2.10;;;;;;;7.14;100.00;101955.22;5253598;27;20011;-74
2024/04/10 02:48:44;;;;;;;14.20;2.40;;;;;;;7.14;100.00;101961.22;5258890;27;20026;-74
2024/04/10 02:51:10;;;;;;;17.67;2.50;;;;;;;7.17;100.00;101971.31;5261790;27;20077;-74
2024/04/10 02:53:38;;;;;;;14.18;2.47;;;;;;;7.07;100.00;101969.50;5261773;27;20030;-74
2024/04/10 02:56:04;;;;;;;15.70;2.60;;;;;;;7.12;100.00;101973.41;5268332;27;20053;-73
2024/04/10 02:58:30;;;;;;;20.58;2.78;;;;;;;7.07;100.00;101977.22;5258679;27;20076;-74
2024/04/10 03:00:57;;;;;;;23.98;4.13;;;;;;;7.02;100.00;101985.25;5261956;27;20010;-74
2024/04/10 03:03:24;;;;;;;14.55;2.80;;;;;;;7.05;100.00;101986.81;5261677;27;20470;-74
2024/04/10 03:06:02;;;;;;;19.80;2.47;;;;;;;7.01;100.00;101988.78;5264143;27;20022;-74
2024/04/10 03:08:29;;;;;;;16.40;2.58;;;;;;;7.02;100.00;101993.00;5265430;27;20022;-74
2024/04/10 03:10:55;;;;;;;14.98;1.98;;;;;;;7.00;100.00;101994.84;5269532;27;20077;-73
2024/04/10 03:13:21;;;;;;;19.95;3.92;;;;;;;6.96;100.00;101998.56;5258948;27;20081;-74
2024/04/10 03:15:47;;;;;;;23.42;2.10;;;;;;;7.04;100.00;102000.63;5264703;27;20011;-74
2024/04/10 03:18:13;;;;;;;19.55;2.72;;;;;;;7.07;100.00;102006.41;5264779;27;20021;-73
2024/04/10 03:20:39;;;;;;;17.23;2.75;;;;;;;7.02;100.00;102011.06;5260032;27;20007;-74
2024/04/10 03:23:05;;;;;;;19.58;2.22;;;;;;;6.94;100.00;102015.91;5270038;27;20338;-73
2024/04/10 03:25:33;;;;;;;17.02;2.50;;;;;;;7.04;100.00;102026.44;5267939;27;20018;-74
2024/04/10 03:27:59;;;;;;;20.00;2.83;;;;;;;7.04;100.00;102029.81;5252678;27;20418;-74
2024/04/10 03:30:26;;;;;;;18.92;2.72;;;;;;;7.08;100.00;102027.88;5254137;27;20034;-74
2024/04/10 03:32:55;;;;;;;19.35;3.17;;;;;;;6.99;100.00;102031.91;5268420;27;20018;-74
2024/04/10 03:35:21;;;;;;;12.98;2.55;;;;;;;7.01;100.00;102035.22;5258111;27;20540;-74
2024/04/10 03:37:47;;;;;;;13.75;2.35;;;;;;;7.01;100.00;102045.53;5262628;27;20002;-74
2024/04/10 03:40:13;;;;;;;22.42;3.08;;;;;;;6.93;100.00;102043.47;5258620;27;20034;-74
2024/04/10 03:42:39;;;;;;;14.50;2.47;;;;;;;6.92;100.00;102041.78;5264858;27;20018;-73
2024/04/10 03:45:06;;;;;;;22.10;2.50;;;;;;;6.93;100.00;102055.50;5267044;27;20034;-73
2024/04/10 03:47:32;;;;;;;20.77;2.83;;;;;;;6.93;100.00;102046.03;5237918;27;20030;-73
2024/04/10 03:49:59;;;;;;;14.63;2.20;;;;;;;7.07;100.00;102058.00;5264353;27;20603;-74
2024/04/10 03:52:25;;;;;;;23.50;2.50;;;;;;;6.96;100.00;102053.53;5265724;27;20077;-74
2024/04/10 03:54:51;;;;;;;20.83;2.60;;;;;;;6.94;100.00;102062.31;5259423;27;20011;-74
2024/04/10 03:57:17;;;;;;;22.85;2.50;;;;;;;6.89;100.00;102070.34;5261671;27;20017;-74
2024/04/10 03:59:43;;;;;;;26.17;3.17;;;;;;;7.01;100.00;102077.28;5267486;27;20018;-73
2024/04/10 04:02:09;;;;;;;15.07;2.72;;;;;;;7.01;100.00;102076.47;5268714;27;20039;-74
2024/04/10 04:04:35;;;;;;;22.38;2.15;;;;;;;7.03;100.00;102079.78;5258536;27;21613;-74
2024/04/10 04:07:01;;;;;;;16.20;2.40;;;;;;;6.96;100.00;102094.00;5229669;27;20028;-74
2024/04/10 04:09:27;;;;;;;18.13;3.42;;;;;;;6.98;100.00;102090.38;5256906;27;20480;-73
2024/04/10 04:11:53;;;;;;;27.55;2.83;;;;;;;7.00;100.00;102095.44;5262456;27;20025;-74
2024/04/10 04:14:19;;;;;;;19.60;2.58;;;;;;;7.02;100.00;102096.97;5263261;27;20069;-73
2024/04/10 04:16:45;;;;;;;20.58;2.90;;;;;;;7.00;100.00;102092.84;5265563;27;20029;-74
2024/04/10 04:19:11;;;;;;;19.00;2.45;;;;;;;6.96;100.00;102101.72;5263630;27;20025;-74
2024/04/10 04:21:37;;;;;;;13.77;2.35;;;;;;;6.91;100.00;102103.78;5260608;27;20013;-74
2024/04/10 04:24:03;;;;;;;18.15;2.95;;;;;;;6.94;100.00;102103.59;5265575;27;20010;-74
2024/04/10 04:26:29;;;;;;;18.45;2.33;;;;;;;6.90;100.00;102104.72;5262955;27;20010;-73
2024/04/10 04:28:55;;;;;;;17.45;2.95;;;;;;;6.91;100.00;102112.38;5264038;27;20018;-73
2024/04/10 04:31:21;;;;;;;11.00;1.80;;;;;;;6.90;100.00;102123.59;5261941;27;20484;-73
2024/04/10 04:33:48;;;;;;;17.25;2.55;;;;;;;6.91;100.00;102124.41;5264613;27;20014;-73
2024/04/10 04:36:14;;;;;;;22.35;2.40;;;;;;;6.94;100.00;102126.78;5256729;27;20015;-74
2024/04/10 04:38:41;;;;;;;21.90;2.80;;;;;;;6.89;100.00;102124.50;5258552;27;20014;-74
2024/04/10 04:41:07;;;;;;;17.90;2.83;;;;;;;6.95;100.00;102141.31;5268695;27;20006;-74
2024/04/10 04:43:32;;;;;;;14.30;2.75;;;;;;;6.91;100.00;102150.19;5262205;27;20011;-74
2024/04/10 04:46:00;;;;;;;21.60;2.60;;;;;;;6.88;100.00;102151.22;5258856;27;20010;-73
2024/04/10 04:48:26;;;;;;;23.67;2.83;;;;;;;6.91;100.00;102161.34;5257482;27;20024;-74
2024/04/10 04:50:53;;;;;;;18.42;2.50;;;;;;;6.93;100.00;102162.09;5263274;27;20349;-73
2024/04/10 04:53:19;;;;;;;14.52;2.38;;;;;;;6.81;100.00;102161.09;5260506;27;20007;-73
2024/04/10 04:55:46;;;;;;;17.42;2.30;;;;;;;6.75;100.00;102171.81;5269422;27;20022;-74
2024/04/10 04:58:12;;;;;;;14.48;2.28;;;;;;;6.75;100.00;102171.81;5257380;27;20010;-73
2024/04/10 05:00:39;;;;;;;17.30;2.88;;;;;;;6.82;100.00;102172.25;5271349;27;20031;-73
2024/04/10 05:03:06;;;;;;;10.68;1.92;;;;;;;6.74;100.00;102179.63;5264836;27;20080;-73
2024/04/10 05:05:33;;;;;;;18.92;2.78;;;;;;;6.85;100.00;102184.13;5230103;27;20014;-74
2024/04/10 05:07:59;;;;;;;19.55;2.60;;;;;;;6.89;100.00;102188.16;5267137;27;20050;-73
2024/04/10 05:10:26;;;;;;;21.10;2.88;;;;;;;6.96;100.00;102189.41;5262642;27;20429;-73
2024/04/10 05:12:52;;;;;;;21.98;2.38;;;;;;;6.96;100.00;102192.00;5270928;27;20002;-74
2024/04/10 05:15:18;;;;;;;11.60;3.13;;;;;;;7.01;100.00;102193.34;5265710;27;20030;-73
2024/04/10 05:17:49;;;;;;;18.17;2.22;;;;;;;6.95;100.00;102204.06;5263577;27;20082;-73
2024/04/10 05:20:15;;;;;;;19.33;2.80;;;;;;;7.02;100.00;102205.31;5264800;27;20030;-74
2024/04/10 05:22:45;;;;;;;14.48;2.63;;;;;;;7.02;100.00;102212.22;5257353;27;20089;-73
2024/04/10 05:25:11;;;;;;;23.13;2.85;;;;;;;7.04;100.00;102207.78;5268675;27;20038;-74
2024/04/10 05:27:38;;;;;;;16.25;3.35;;;;;;;7.11;100.00;102219.38;5262951;27;20007;-74
2024/04/10 05:30:07;;;;;;;15.82;2.70;;;;;;;7.09;100.00;102225.56;5259446;27;20033;-74
2024/04/10 05:32:39;;;;;;;19.52;3.08;;;;;;;7.04;100.00;102235.34;5263611;27;20017;-74
2024/04/10 05:35:13;;;;;;;18.92;3.25;;;;;;;7.15;100.00;102245.81;5262699;27;20450;-74
2024/04/10 05:37:39;;;;;;;15.82;2.35;;;;;;;7.28;100.00;102240.69;5258500;27;20058;-74
2024/04/10 05:40:13;;;;;;;12.18;2.25;;;;;;;7.24;100.00;102246.97;5263425;27;20080;-73
2024/04/10 05:42:40;;;;;;;13.63;2.53;;;;;;;7.32;100.00;102249.88;5258697;27;20405;-74
2024/04/10 05:45:08;;;;;;;21.30;2.92;;;;;;;7.36;100.00;102259.06;5268792;27;20018;-74
2024/04/10 05:47:36;;;;;;;13.48;2.50;;;;;;;7.39;100.00;102269.22;5268093;27;20089;-74
2024/04/10 05:50:03;;;;;;;14.32;3.63;;;;;;;7.46;100.00;102273.06;5270359;27;20014;-73
2024/04/10 05:52:30;;;;;;;19.35;2.80;;;;;;;7.49;100.00;102279.75;5259833;27;20014;-73
2024/04/10 05:54:56;;;;;;;23.52;2.88;;;;;;;7.55;100.00;102281.94;5260074;27;20385;-73
2024/04/10 05:57:24;;;;;;;24.45;2.85;;;;;;;7.56;100.00;102283.59;5263675;27;20003;-74
2024/04/10 05:59:57;;;;;;;23.00;2.97;;;;;;;7.59;100.00;102284.22;5266587;27;20481;-73
2024/04/10 06:02:26;;;;;;;18.58;2.53;;;;;;;7.73;100.00;102287.66;5266199;27;20089;-74
2024/04/10 06:04:56;;;;;;;19.70;2.72;;;;;;;7.74;100.00;102284.13;5297050;27;20453;-73
2024/04/10 06:07:23;;;;;;;22.88;2.78;;;;;;;7.74;100.00;102292.72;5262585;27;20014;-74
2024/04/10 06:09:55;;;;;;;20.65;3.85;;;;;;;7.87;100.00;102302.22;5260063;27;20011;-73
2024/04/10 06:12:23;;;;;;;18.55;2.72;;;;;;;7.94;100.00;102299.13;5259483;27;20010;-74
2024/04/10 06:14:55;;;;;;;13.50;2.92;;;;;;;7.96;100.00;102304.22;5266746;27;20007;-73
2024/04/10 06:17:22;;;;;;;15.88;2.40;;;;;;;7.99;100.00;102306.59;5265800;26;20089;-73
2024/04/10 06:19:49;;;;;;;15.07;3.05;;;;;;;8.03;100.00;102315.78;5241365;27;20014;-73
2024/04/10 06:22:14;;;;;;;12.70;2.80;;;;;;;8.14;100.00;102313.31;5267842;27;20084;-73
2024/04/10 06:24:44;;;;;;;14.30;2.78;;;;;;;8.15;100.00;102312.38;5266093;27;20007;-73
2024/04/10 06:27:11;;;;;;;15.38;2.72;;;;;;;8.25;100.00;102314.34;5261511;27;20802;-74
2024/04/10 06:29:42;;;;;;;18.98;4.25;;;;;;;8.40;100.00;102326.25;5263074;27;20014;-73
2024/04/10 06:32:08;;;;;;;15.00;3.40;;;;;;;8.49;99.88;102322.22;5262822;27;20026;-73
2024/04/10 06:34:34;;;;;;;18.90;3.40;;;;;;;8.72;98.73;102330.97;5263296;27;20080;-73
2024/04/10 06:37:01;;;;;;;18.65;2.95;;;;;;;8.84;97.71;102337.88;5263747;27;20014;-73
2024/04/10 06:39:28;;;;;;;19.42;3.60;;;;;;;8.89;96.39;102340.13;5269068;27;20527;-73
2024/04/10 06:41:54;;;;;;;19.05;2.45;;;;;;;9.09;95.83;102341.34;5254607;27;20018;-73
2024/04/10 06:44:20;;;;;;;24.25;4.45;;;;;;;9.10;95.41;102337.84;5261831;27;20006;-73
2024/04/10 06:46:45;;;;;;;19.85;4.10;;;;;;;9.21;94.53;102343.06;5265930;27;20018;-73
2024/04/10 06:49:12;;;;;;;17.98;2.75;;;;;;;9.18;94.18;102350.22;5259688;26;20357;-73
2024/04/10 06:51:38;;;;;;;14.93;3.40;;;;;;;9.16;93.82;102351.16;5258746;27;20010;-73
2024/04/10 06:54:04;;;;;;;20.92;3.28;;;;;;;9.09;93.94;102357.69;5259217;27;20455;-73
2024/04/10 06:56:30;;;;;;;14.95;3.95;;;;;;;9.06;93.81;102360.50;5257608;27;20019;-74
2024/04/10 06:58:58;;;;;;;19.98;2.95;;;;;;;9.04;94.15;102364.13;5265702;27;20029;-72
2024/04/10 07:01:24;;;;;;;14.18;2.75;;;;;;;9.06;93.43;102365.69;5268086;27;20010;-73
2024/04/10 07:03:50;;;;;;;18.00;3.60;;;;;;;9.10;93.46;102372.28;5258413;27;20409;-74
2024/04/10 07:06:17;;;;;;;19.60;2.85;;;;;;;9.01;93.53;102383.28;5261719;27;20081;-72
2024/04/10 07:08:47;;;;;;;16.83;2.83;;;;;;;9.13;93.21;102390.16;5260807;27;20002;-73
2024/04/10 07:11:21;;;;;;;14.40;2.97;;;;;;;9.06;94.48;102386.38;5264902;27;20016;-73
2024/04/10 07:13:52;;;;;;;19.55;2.67;;;;;;;9.19;93.29;102390.69;5257996;27;20018;-73
2024/04/10 07:16:19;;;;;;;13.25;2.50;;;;;;;9.26;93.31;102397.91;5268474;27;20025;-73
2024/04/10 07:18:45;;;;;;;10.68;2.40;;;;;;;9.40;92.02;102396.09;5262375;27;20088;-73
2024/04/10 07:21:12;;;;;;;11.45;2.65;;;;;;;9.53;90.97;102402.03;5270803;27;20018;-73
2024/04/10 07:23:40;;;;;;;12.15;2.67;;;;;;;9.48;91.81;102409.34;5259997;27;20018;-73
2024/04/10 07:26:26;;;;;;;23.80;4.10;;;;;;;9.63;90.77;102412.59;5265413;27;20061;-73
2024/04/10 07:28:54;;;;;;;15.05;2.30;;;;;;;9.55;91.69;102415.75;5265017;27;20003;-73
2024/04/10 07:31:22;;;;;;;17.73;3.05;;;;;;;9.63;91.18;102430.72;5258845;27;20039;-73
2024/04/10 07:33:49;;;;;;;18.80;3.70;;;;;;;9.61;90.50;102424.84;5255542;27;20046;-73
2024/04/10 07:37:48;;;;;;;21.33;3.10;;;;;;;10.04;89.76;102429.47;5446890;26;20420;-73
2024/04/10 07:40:15;;;;;;;10.25;2.95;;;;;;;11.52;83.07;102418.22;5392099;26;20026;-73
2024/04/10 07:42:41;;;;;;;14.07;2.85;;;;;;;12.74;74.35;102412.50;5402853;26;20018;-73
2024/04/10 07:45:08;;;;;;;19.42;2.75;;;;;;;13.62;69.70;102416.13;5422734;26;20085;-74
2024/04/10 07:47:34;;;;;;;10.95;2.17;;;;;;;14.39;64.12;102419.63;5418888;26;20003;-74
2024/04/10 07:50:00;;;;;;;13.73;2.38;;;;;;;14.58;61.69;102404.91;5423748;26;20011;-73
2024/04/10 07:52:26;;;;;;;20.75;2.63;;;;;;;13.78;64.93;102418.19;5422996;26;20022;-74
2024/04/10 07:54:53;;;;;;;15.00;2.40;;;;;;;13.33;66.00;102426.53;5419833;26;20019;-73
2024/04/10 07:57:19;;;;;;;9.27;1.95;;;;;;;13.60;66.81;102428.50;5416796;26;20003;-73
2024/04/10 07:59:46;;;;;;;13.38;2.50;;;;;;;12.93;69.07;102432.56;5422611;26;20019;-74
2024/04/10 08:02:12;;;;;;;18.00;2.35;;;;;;;12.61;68.49;102438.72;5419354;26;20035;-73
2024/04/10 08:04:38;;;;;;;13.70;2.50;;;;;;;13.54;66.96;102444.69;5426055;26;20026;-73
2024/04/10 08:07:04;;;;;;;14.48;2.53;;;;;;;13.94;63.54;102442.91;5422491;26;20018;-73
2024/04/10 08:09:30;;;;;;;11.05;2.13;;;;;;;13.48;63.49;102439.97;5416949;26;20008;-73
2024/04/10 08:11:56;;;;;;;18.42;3.05;;;;;;;13.14;64.87;102442.91;5423536;26;20003;-74
2024/04/10 08:14:22;;;;;;;13.00;3.40;;;;;;;13.11;66.39;102448.41;5426140;26;20346;-74
2024/04/10 08:16:48;;;;;;;14.73;2.35;;;;;;;12.59;67.12;102453.66;5422201;26;20365;-74
2024/04/10 08:19:14;;;;;;;14.48;2.28;;;;;;;12.69;68.54;102448.47;5420998;26;23436;-74
2024/04/10 08:21:40;;;;;;;8.35;2.38;;;;;;;13.52;64.28;102446.56;5425721;26;20025;-73
2024/04/10 08:24:07;;;;;;;14.15;2.47;;;;;;;13.86;62.86;102443.56;5418555;26;20134;-74
2024/04/10 08:26:33;;;;;;;13.48;2.60;;;;;;;14.55;61.26;102444.28;5426478;26;20445;-74
2024/04/10 08:28:59;;;;;;;14.32;2.67;;;;;;;15.40;58.26;102438.97;5423164;26;20015;-73
2024/04/10 08:31:30;;;;;;;14.07;2.08;;;;;;;15.92;56.30;102447.00;5425994;26;20015;-74
2024/04/10 08:33:56;;;;;;;13.75;2.22;;;;;;;14.81;56.06;102454.94;5392033;26;20035;-74
2024/04/10 08:36:23;;;;;;;17.65;2.17;;;;;;;13.77;59.97;102457.44;5425089;26;20019;-74
2024/04/10 08:38:50;;;;;;;12.38;1.67;;;;;;;14.66;59.07;102467.66;5427894;26;20618;-74
2024/04/10 08:41:18;;;;;;;19.45;2.03;;;;;;;14.87;56.61;102461.38;5424300;26;20080;-74
2024/04/10 08:43:46;;;;;;;11.88;1.92;;;;;;;15.28;57.31;102467.09;5439941;26;20096;-74
2024/04/10 08:46:13;;;;;;;16.88;2.00;;;;;;;15.76;54.88;102461.56;5427369;26;20346;-74
2024/04/10 08:48:41;;;;;;;12.68;1.95;;;;;;;16.18;52.57;102469.72;5407778;26;20022;-74
2024/04/10 08:51:12;;;;;;;12.57;1.90;;;;;;;16.25;54.09;102473.38;5404414;26;20458;-74
2024/04/10 08:53:42;;;;;;;17.30;2.63;;;;;;;14.90;55.23;102477.59;5402902;26;20781;-74
2024/04/10 08:56:09;;;;;;;6.93;2.00;;;;;;;15.40;55.29;102483.41;5397852;26;20022;-74
2024/04/10 08:58:35;;;;;;;10.52;2.28;;;;;;;14.92;54.43;102486.09;5405769;26;20007;-75
2024/04/10 09:01:01;;;;;;;16.92;2.10;;;;;;;14.38;55.92;102498.03;5408654;26;20030;-74
2024/04/10 09:03:26;;;;;;;14.63;2.28;;;;;;;13.81;57.59;102493.53;5410084;26;20011;-74
2024/04/10 09:05:52;;;;;;;8.27;1.80;;;;;;;14.27;58.12;102492.97;5411690;26;20011;-74
2024/04/10 09:08:18;;;;;;;12.48;2.42;;;;;;;15.16;56.51;102489.97;5409578;26;20018;-74
2024/04/10 09:10:53;;;;;;;14.93;2.92;;;;;;;14.81;55.63;102498.53;5409061;26;19999;-74
2024/04/10 09:13:19;;;;;;;10.98;2.72;;;;;;;14.17;55.16;102511.25;5405675;26;20011;-74
2024/04/10 09:15:45;;;;;;;10.60;2.35;;;;;;;13.75;56.44;102516.69;5409788;26;20026;-73
2024/04/10 09:18:11;;;;;;;12.43;2.28;;;;;;;13.33;57.29;102515.09;5411840;26;20008;-74
2024/04/10 09:20:39;;;;;;;9.65;1.73;;;;;;;13.22;57.84;102521.22;5377050;26;20008;-74
2024/04/10 09:23:06;;;;;;;10.18;1.63;;;;;;;13.78;60.06;102522.47;5406575;26;20561;-74
2024/04/10 09:25:37;;;;;;;8.18;2.47;;;;;;;14.68;56.48;102524.94;5407704;26;20080;-74
2024/04/10 09:28:07;;;;;;;14.52;2.95;;;;;;;14.94;55.09;102528.56;5397731;26;20015;-74
2024/04/10 09:30:34;;;;;;;14.32;2.08;;;;;;;15.29;53.21;102526.22;5408485;26;20004;-75
2024/04/10 09:33:01;;;;;;;14.30;1.60;;;;;;;15.91;52.60;102526.41;5402304;26;20036;-74
2024/04/10 09:35:28;;;;;;;9.45;2.00;;;;;;;15.54;52.26;102529.97;5401302;26;20004;-74
2024/04/10 09:37:58;;;;;;;8.80;1.63;;;;;;;15.41;52.88;102526.84;5411770;26;20021;-74
2024/04/10 09:40:26;;;;;;;10.00;1.58;;;;;;;15.23;53.39;102530.25;5385521;26;20075;-74
2024/04/10 09:43:04;;;;;;;12.68;1.75;;;;;;;15.42;54.22;102528.50;5419905;26;20015;-74
2024/04/10 09:45:43;;;;;;;13.77;2.13;;;;;;;15.99;54.52;102534.34;5444717;26;20002;-74
2024/04/10 09:48:10;;;;;;;7.53;2.45;;;;;;;15.56;53.39;102533.25;5442495;26;20005;-74
2024/04/10 09:50:37;;;;;;;13.18;1.98;;;;;;;15.10;52.78;102534.97;5412197;26;20003;-75
2024/04/10 09:53:05;;;;;;;8.57;2.13;;;;;;;14.56;54.04;102537.28;5413628;26;20018;-74
2024/04/10 09:55:33;;;;;;;5.63;1.48;;;;;;;14.29;55.68;102543.22;5414681;26;20018;-74
2024/04/10 09:58:03;;;;;;;11.32;2.15;;;;;;;14.08;55.58;102545.97;5382682;26;20048;-74
2024/04/10 10:00:35;;;;;;;11.63;2.03;;;;;;;13.91;56.49;102550.09;5405256;26;20014;-74
2024/04/10 10:03:06;;;;;;;11.52;1.98;;;;;;;13.78;56.26;102552.94;5412626;26;20117;-74
2024/04/10 10:05:32;;;;;;;9.25;2.15;;;;;;;14.38;56.83;102547.63;5445122;26;20076;-74
2024/04/10 10:08:15;;;;;;;9.55;2.20;;;;;;;15.22;55.83;102546.91;5386242;26;20003;-74
2024/04/10 10:10:56;;;;;;;13.50;2.10;;;;;;;15.64;51.90;102541.16;5407271;26;20033;-75
2024/04/10 10:13:29;;;;;;;7.82;1.88;;;;;;;16.08;50.86;102532.63;5413170;26;20984;-75
2024/04/10 10:16:00;;;;;;;7.85;1.50;;;;;;;15.49;51.80;102538.22;5443128;26;20014;-74
2024/04/10 10:18:27;;;;;;;8.50;1.63;;;;;;;15.35;51.93;102542.16;5406369;26;20485;-74
2024/04/10 10:21:03;;;;;;;10.45;2.10;;;;;;;15.75;50.39;102541.00;5413623;26;20050;-74
2024/04/10 10:23:29;;;;;;;8.00;1.75;;;;;;;15.75;52.28;102548.03;5441208;26;20010;-74
2024/04/10 10:25:55;;;;;;;9.20;1.52;;;;;;;15.96;51.38;102548.53;5444826;26;20010;-74
2024/04/10 10:28:21;;;;;;;6.90;1.60;;;;;;;16.24;50.32;102552.91;5443752;26;20051;-74
2024/04/10 10:30:48;;;;;;;10.13;1.45;;;;;;;16.41;50.65;102551.22;5444169;26;20621;-74
2024/04/10 10:33:18;;;;;;;7.82;1.40;;;;;;;16.34;49.21;102548.38;5441330;26;20064;-75
2024/04/10 10:35:44;;;;;;;8.23;1.60;;;;;;;16.36;50.72;102549.06;5442797;26;20410;-74
2024/04/10 10:38:10;;;;;;;5.47;1.42;;;;;;;16.49;46.20;102546.84;5413126;26;20010;-75
2024/04/10 10:40:36;;;;;;;6.65;1.58;;;;;;;16.58;48.79;102537.28;5410369;26;20365;-74
2024/04/10 10:43:04;;;;;;;9.85;1.70;;;;;;;16.73;46.74;102534.91;5412476;26;20087;-75
2024/04/10 10:45:34;;;;;;;7.90;1.45;;;;;;;16.49;46.78;102540.81;5444711;26;20469;-74
2024/04/10 10:48:03;;;;;;;7.07;1.40;;;;;;;16.70;48.28;102553.53;5413146;26;20486;-75
2024/04/10 10:50:32;;;;;;;10.15;1.63;;;;;;;16.93;46.79;102546.84;5413189;26;20538;-75
2024/04/10 10:53:00;;;;;;;9.73;1.80;;;;;;;17.05;45.88;102549.19;5436730;26;20023;-75
2024/04/10 10:55:27;;;;;;;13.73;1.42;;;;;;;16.97;44.94;102538.66;5399872;26;20007;-75
2024/04/10 10:58:03;;;;;;;10.20;1.65;;;;;;;16.85;46.01;102540.72;5408902;26;20003;-75
2024/04/10 11:00:31;;;;;;;8.55;1.63;;;;;;;16.73;47.33;102548.81;5442042;26;20012;-75
2024/04/10 11:03:06;;;;;;;9.68;1.70;;;;;;;16.81;47.89;102539.38;5415842;26;20002;-74
2024/04/10 11:05:32;;;;;;;12.27;1.48;;;;;;;16.98;46.65;102543.75;5382807;26;20044;-76
2024/04/10 11:07:59;;;;;;;6.03;1.50;;;;;;;16.95;46.30;102543.25;5411330;26;21578;-75
2024/04/10 11:10:27;;;;;;;11.38;3.42;;;;;;;16.84;45.13;102539.91;5443169;26;20003;-75
2024/04/10 11:13:02;;;;;;;7.93;1.70;;;;;;;16.77;45.40;102541.47;5410090;26;20428;-75
2024/04/10 11:15:29;;;;;;;10.38;1.63;;;;;;;16.88;45.86;102538.63;5414088;26;20454;-75
2024/04/10 11:18:04;;;;;;;9.63;1.63;;;;;;;17.02;46.44;102534.59;5415007;26;20017;-75
2024/04/10 11:20:31;;;;;;;5.97;1.30;;;;;;;17.19;45.16;102537.28;5441305;26;20015;-75
2024/04/10 11:23:03;;;;;;;11.68;1.60;;;;;;;16.74;46.78;102541.78;5411175;26;20493;-75